AAL1045 KATL-KMIA
Flight info
| Callsign | AAL1045 |
|---|---|
| Flight time | 1h 17m |
| Altitude | 35000 |
| Route | BANNG3 LUCKK HONID FROGZ5 |
| Aircraft | A21N/M-SDE3FGHIRWY/LB1 |
Departure
| Time | 2026-05-05 21:23 |
|---|---|
| Airport | Hartsfield Jackson Atlanta International Airport (KATL) |
Arrival
| Time | 2026-05-05 22:41 |
|---|---|
| Airport | Miami International Airport (KMIA) |
| Time | Latitude | Longitude | Altitude | Speed | Heading |
|---|---|---|---|---|---|
| 2026-05-05 21:08 | 33.64233 | -84.44193 | 1021 ft | 0 kts | 270° |
| 2026-05-05 21:08 | 33.64233 | -84.44180 | 1021 ft | 2 kts | 270° |
| 2026-05-05 21:09 | 33.64233 | -84.44162 | 1021 ft | 2 kts | 270° |
| 2026-05-05 21:09 | 33.64233 | -84.44144 | 1021 ft | 2 kts | 270° |
| 2026-05-05 21:09 | 33.64233 | -84.44132 | 1021 ft | 2 kts | 259° |
| 2026-05-05 21:09 | 33.64242 | -84.44118 | 1021 ft | 2 kts | 205° |
| 2026-05-05 21:10 | 33.64251 | -84.44115 | 1021 ft | 0 kts | 177° |
| 2026-05-05 21:10 | 33.64257 | -84.44115 | 1021 ft | 0 kts | 180° |
| 2026-05-05 21:12 | 33.64253 | -84.44115 | 1021 ft | 2 kts | 180° |
| 2026-05-05 21:13 | 33.64198 | -84.44115 | 1021 ft | 12 kts | 181° |
| 2026-05-05 21:13 | 33.64093 | -84.44115 | 1021 ft | 14 kts | 180° |
| 2026-05-05 21:13 | 33.63991 | -84.44116 | 1021 ft | 14 kts | 180° |
| 2026-05-05 21:13 | 33.63891 | -84.44116 | 1021 ft | 14 kts | 180° |
| 2026-05-05 21:14 | 33.63794 | -84.44118 | 1021 ft | 13 kts | 181° |
| 2026-05-05 21:14 | 33.63699 | -84.44109 | 1021 ft | 13 kts | 156° |
| 2026-05-05 21:14 | 33.63662 | -84.44016 | 1021 ft | 13 kts | 90° |
| 2026-05-05 21:14 | 33.63662 | -84.43905 | 1021 ft | 13 kts | 90° |
| 2026-05-05 21:15 | 33.63662 | -84.43795 | 1021 ft | 13 kts | 90° |
| 2026-05-05 21:15 | 33.63663 | -84.43681 | 1021 ft | 13 kts | 91° |
| 2026-05-05 21:15 | 33.63662 | -84.43568 | 1021 ft | 13 kts | 90° |
| 2026-05-05 21:15 | 33.63663 | -84.43456 | 1021 ft | 13 kts | 90° |
| 2026-05-05 21:16 | 33.63662 | -84.43343 | 1021 ft | 13 kts | 91° |
| 2026-05-05 21:16 | 33.63660 | -84.43231 | 1021 ft | 13 kts | 91° |
| 2026-05-05 21:16 | 33.63660 | -84.43117 | 1021 ft | 13 kts | 89° |
| 2026-05-05 21:16 | 33.63662 | -84.43003 | 1021 ft | 13 kts | 89° |
| 2026-05-05 21:17 | 33.63662 | -84.42886 | 1021 ft | 14 kts | 90° |
| 2026-05-05 21:17 | 33.63661 | -84.42754 | 1021 ft | 16 kts | 91° |
| 2026-05-05 21:17 | 33.63656 | -84.42622 | 1021 ft | 15 kts | 91° |
| 2026-05-05 21:17 | 33.63652 | -84.42491 | 1021 ft | 15 kts | 92° |
| 2026-05-05 21:18 | 33.63652 | -84.42364 | 1021 ft | 14 kts | 90° |
| 2026-05-05 21:18 | 33.63653 | -84.42241 | 1021 ft | 14 kts | 89° |
| 2026-05-05 21:18 | 33.63654 | -84.42108 | 1019 ft | 16 kts | 91° |
| 2026-05-05 21:18 | 33.63652 | -84.41969 | 1018 ft | 16 kts | 90° |
| 2026-05-05 21:19 | 33.63652 | -84.41836 | 1018 ft | 15 kts | 91° |
| 2026-05-05 21:19 | 33.63654 | -84.41708 | 1018 ft | 15 kts | 89° |
| 2026-05-05 21:19 | 33.63655 | -84.41588 | 1019 ft | 13 kts | 90° |
| 2026-05-05 21:19 | 33.63654 | -84.41464 | 1016 ft | 16 kts | 90° |
| 2026-05-05 21:20 | 33.63654 | -84.41312 | 1012 ft | 19 kts | 90° |
| 2026-05-05 21:20 | 33.63656 | -84.41139 | 1008 ft | 21 kts | 90° |
| 2026-05-05 21:20 | 33.63654 | -84.40967 | 1005 ft | 12 kts | 90° |
| 2026-05-05 21:20 | 33.63625 | -84.40905 | 1003 ft | 7 kts | 171° |
| 2026-05-05 21:21 | 33.63585 | -84.40906 | 1003 ft | 3 kts | 182° |
| 2026-05-05 21:21 | 33.63556 | -84.40907 | 1003 ft | 4 kts | 182° |
| 2026-05-05 21:21 | 33.63519 | -84.40910 | 1003 ft | 6 kts | 183° |
| 2026-05-05 21:21 | 33.63473 | -84.40931 | 1004 ft | 7 kts | 244° |
| 2026-05-05 21:22 | 33.63470 | -84.40953 | 1004 ft | 0 kts | 268° |
| 2026-05-05 21:22 | 33.63470 | -84.40954 | 1004 ft | 0 kts | 268° |
| 2026-05-05 21:22 | 33.63470 | -84.41099 | 1005 ft | 51 kts | 270° |
| 2026-05-05 21:22 | 33.63467 | -84.41815 | 1009 ft | 119 kts | 270° |
| 2026-05-05 21:23 | 33.63469 | -84.43052 | 1019 ft | 173 kts | 266° |
| 2026-05-05 21:23 | 33.63486 | -84.44544 | 1455 ft | 183 kts | 266° |
| 2026-05-05 21:23 | 33.63528 | -84.46079 | 2087 ft | 188 kts | 268° |
| 2026-05-05 21:23 | 33.63562 | -84.47638 | 2806 ft | 187 kts | 266° |
| 2026-05-05 21:24 | 33.63548 | -84.49239 | 3331 ft | 199 kts | 265° |
| 2026-05-05 21:24 | 33.63522 | -84.50966 | 3779 ft | 216 kts | 266° |
| 2026-05-05 21:24 | 33.63503 | -84.52859 | 4165 ft | 238 kts | 266° |
| 2026-05-05 21:24 | 33.63491 | -84.54919 | 4600 ft | 258 kts | 267° |
| 2026-05-05 21:25 | 33.63485 | -84.57143 | 5257 ft | 269 kts | 267° |
| 2026-05-05 21:25 | 33.63483 | -84.59402 | 6112 ft | 272 kts | 268° |
| 2026-05-05 21:25 | 33.63480 | -84.61739 | 7002 ft | 274 kts | 268° |
| 2026-05-05 21:25 | 33.63374 | -84.64059 | 7917 ft | 272 kts | 256° |
| 2026-05-05 21:26 | 33.62518 | -84.66081 | 8808 ft | 272 kts | 230° |
| 2026-05-05 21:26 | 33.60996 | -84.67497 | 9679 ft | 276 kts | 213° |
| 2026-05-05 21:26 | 33.59228 | -84.68676 | 10468 ft | 281 kts | 211° |
| 2026-05-05 21:26 | 33.57291 | -84.69416 | 11202 ft | 292 kts | 192° |
| 2026-05-05 21:27 | 33.55195 | -84.69351 | 11943 ft | 302 kts | 177° |
| 2026-05-05 21:27 | 33.53038 | -84.68940 | 12678 ft | 306 kts | 175° |
| 2026-05-05 21:27 | 33.50875 | -84.68501 | 13360 ft | 310 kts | 176° |
| 2026-05-05 21:27 | 33.48679 | -84.68066 | 14035 ft | 314 kts | 176° |
| 2026-05-05 21:28 | 33.46489 | -84.67646 | 14642 ft | 320 kts | 176° |
| 2026-05-05 21:28 | 33.44256 | -84.67220 | 15235 ft | 325 kts | 175° |
| 2026-05-05 21:28 | 33.42003 | -84.66600 | 15839 ft | 334 kts | 168° |
| 2026-05-05 21:28 | 33.39782 | -84.65649 | 16309 ft | 347 kts | 162° |
| 2026-05-05 21:29 | 33.37487 | -84.64446 | 16585 ft | 363 kts | 160° |
| 2026-05-05 21:29 | 33.35099 | -84.63145 | 16854 ft | 379 kts | 160° |
| 2026-05-05 21:29 | 33.32632 | -84.61795 | 17111 ft | 394 kts | 160° |
| 2026-05-05 21:29 | 33.30088 | -84.60409 | 17357 ft | 408 kts | 159° |
| 2026-05-05 21:30 | 33.27403 | -84.58954 | 17601 ft | 422 kts | 159° |
| 2026-05-05 21:30 | 33.24680 | -84.57481 | 17968 ft | 432 kts | 159° |
| 2026-05-05 21:30 | 33.21903 | -84.55981 | 18492 ft | 436 kts | 159° |
| 2026-05-05 21:30 | 33.19136 | -84.54488 | 19054 ft | 439 kts | 159° |
| 2026-05-05 21:31 | 33.16322 | -84.52972 | 19578 ft | 443 kts | 159° |
| 2026-05-05 21:31 | 33.13439 | -84.51424 | 20078 ft | 447 kts | 160° |
| 2026-05-05 21:31 | 33.10552 | -84.49874 | 20585 ft | 451 kts | 160° |
| 2026-05-05 21:31 | 33.07629 | -84.48307 | 21081 ft | 454 kts | 159° |
| 2026-05-05 21:32 | 33.04630 | -84.46701 | 21565 ft | 458 kts | 159° |
| 2026-05-05 21:32 | 33.01718 | -84.45142 | 21990 ft | 462 kts | 160° |
| 2026-05-05 21:32 | 32.98679 | -84.43591 | 22432 ft | 464 kts | 164° |
| 2026-05-05 21:32 | 32.95566 | -84.42526 | 22858 ft | 462 kts | 172° |
| 2026-05-05 21:33 | 32.92381 | -84.42011 | 23301 ft | 459 kts | 181° |
| 2026-05-05 21:33 | 32.89172 | -84.41888 | 23709 ft | 460 kts | 184° |
| 2026-05-05 21:33 | 32.85883 | -84.41847 | 24088 ft | 464 kts | 185° |
| 2026-05-05 21:33 | 32.82981 | -84.41819 | 24438 ft | 467 kts | 185° |
| 2026-05-05 21:34 | 32.79693 | -84.41779 | 24803 ft | 471 kts | 185° |
| 2026-05-05 21:34 | 32.76356 | -84.41729 | 25140 ft | 475 kts | 185° |
| 2026-05-05 21:34 | 32.73060 | -84.41672 | 25475 ft | 478 kts | 185° |
| 2026-05-05 21:34 | 32.69683 | -84.41608 | 25803 ft | 481 kts | 185° |
| 2026-05-05 21:35 | 32.66318 | -84.41543 | 26108 ft | 485 kts | 185° |
| 2026-05-05 21:35 | 32.62868 | -84.41474 | 26434 ft | 488 kts | 185° |
| 2026-05-05 21:35 | 32.59419 | -84.41405 | 26753 ft | 490 kts | 185° |
| 2026-05-05 21:35 | 32.55957 | -84.41335 | 27166 ft | 491 kts | 185° |
| 2026-05-05 21:36 | 32.52590 | -84.41265 | 27596 ft | 490 kts | 185° |
| 2026-05-05 21:36 | 32.49136 | -84.41193 | 27975 ft | 491 kts | 185° |
| 2026-05-05 21:36 | 32.45616 | -84.41123 | 28340 ft | 491 kts | 185° |
| 2026-05-05 21:36 | 32.42165 | -84.41052 | 28716 ft | 492 kts | 185° |
| 2026-05-05 21:37 | 32.38647 | -84.40983 | 29056 ft | 493 kts | 186° |
| 2026-05-05 21:37 | 32.35193 | -84.40916 | 29410 ft | 494 kts | 186° |
| 2026-05-05 21:37 | 32.31701 | -84.40846 | 29781 ft | 494 kts | 186° |
| 2026-05-05 21:37 | 32.28128 | -84.40774 | 30074 ft | 496 kts | 186° |
| 2026-05-05 21:38 | 32.24592 | -84.40704 | 30342 ft | 498 kts | 186° |
| 2026-05-05 21:38 | 32.21030 | -84.40630 | 30672 ft | 499 kts | 186° |
| 2026-05-05 21:38 | 32.17388 | -84.40554 | 31073 ft | 498 kts | 187° |
| 2026-05-05 21:38 | 32.13887 | -84.40488 | 31359 ft | 499 kts | 186° |
| 2026-05-05 21:39 | 32.10328 | -84.40418 | 31632 ft | 501 kts | 186° |
| 2026-05-05 21:39 | 32.06750 | -84.40344 | 31920 ft | 502 kts | 187° |
| 2026-05-05 21:39 | 32.03190 | -84.40268 | 32228 ft | 502 kts | 187° |
| 2026-05-05 21:39 | 31.99649 | -84.40192 | 32529 ft | 502 kts | 187° |
| 2026-05-05 21:40 | 31.96122 | -84.40120 | 32855 ft | 501 kts | 188° |
| 2026-05-05 21:40 | 31.92522 | -84.40048 | 33180 ft | 501 kts | 188° |
| 2026-05-05 21:40 | 31.88992 | -84.39981 | 33434 ft | 502 kts | 188° |
| 2026-05-05 21:40 | 31.85450 | -84.39915 | 33683 ft | 503 kts | 188° |
| 2026-05-05 21:41 | 31.81862 | -84.39846 | 33941 ft | 504 kts | 188° |
| 2026-05-05 21:41 | 31.78346 | -84.39779 | 34215 ft | 504 kts | 188° |
| 2026-05-05 21:41 | 31.74808 | -84.39709 | 34443 ft | 504 kts | 188° |
| 2026-05-05 21:41 | 31.71267 | -84.39641 | 34707 ft | 504 kts | 188° |
| 2026-05-05 21:42 | 31.67741 | -84.39512 | 34944 ft | 508 kts | 186° |
| 2026-05-05 21:42 | 31.64193 | -84.39153 | 34958 ft | 514 kts | 182° |
| 2026-05-05 21:42 | 31.57031 | -84.37645 | 34967 ft | 522 kts | 175° |
| 2026-05-05 21:43 | 31.49918 | -84.35799 | 34968 ft | 522 kts | 175° |
| 2026-05-05 21:43 | 31.42744 | -84.33958 | 34965 ft | 522 kts | 176° |
| 2026-05-05 21:44 | 31.35627 | -84.32153 | 34971 ft | 521 kts | 176° |
| 2026-05-05 21:44 | 31.28514 | -84.30360 | 34970 ft | 521 kts | 176° |
| 2026-05-05 21:45 | 31.21379 | -84.28567 | 34973 ft | 521 kts | 176° |
| 2026-05-05 21:45 | 31.14269 | -84.26778 | 34976 ft | 520 kts | 176° |
| 2026-05-05 21:46 | 31.07148 | -84.24996 | 34972 ft | 522 kts | 176° |
| 2026-05-05 21:46 | 30.99976 | -84.23196 | 34969 ft | 519 kts | 176° |
| 2026-05-05 21:47 | 30.92815 | -84.21404 | 34965 ft | 519 kts | 176° |
| 2026-05-05 21:47 | 30.85654 | -84.19623 | 34968 ft | 521 kts | 176° |
| 2026-05-05 21:48 | 30.78531 | -84.17844 | 34968 ft | 519 kts | 176° |
| 2026-05-05 21:48 | 30.71462 | -84.16081 | 34970 ft | 519 kts | 176° |
| 2026-05-05 21:49 | 30.64338 | -84.14313 | 34973 ft | 518 kts | 175° |
| 2026-05-05 21:49 | 30.57245 | -84.12552 | 34977 ft | 519 kts | 175° |
| 2026-05-05 21:50 | 30.50120 | -84.10783 | 34981 ft | 519 kts | 176° |
| 2026-05-05 21:50 | 30.43069 | -84.08960 | 34984 ft | 523 kts | 172° |
| 2026-05-05 21:51 | 30.36083 | -84.06270 | 34984 ft | 529 kts | 164° |
| 2026-05-05 21:51 | 30.29402 | -84.02490 | 34982 ft | 536 kts | 155° |
| 2026-05-05 21:52 | 30.19687 | -83.95947 | 34987 ft | 536 kts | 154° |
| 2026-05-05 21:53 | 30.13203 | -83.91621 | 34990 ft | 534 kts | 155° |
| 2026-05-05 21:53 | 30.06756 | -83.87358 | 34988 ft | 535 kts | 154° |
| 2026-05-05 21:54 | 30.00283 | -83.83090 | 34988 ft | 535 kts | 155° |
| 2026-05-05 21:54 | 29.93788 | -83.78809 | 34989 ft | 535 kts | 155° |
| 2026-05-05 21:55 | 29.87314 | -83.74548 | 34987 ft | 534 kts | 155° |
| 2026-05-05 21:55 | 29.80836 | -83.70290 | 34983 ft | 534 kts | 155° |
| 2026-05-05 21:56 | 29.74376 | -83.66055 | 34983 ft | 534 kts | 155° |
| 2026-05-05 21:56 | 29.67855 | -83.61794 | 34981 ft | 534 kts | 155° |
| 2026-05-05 21:57 | 29.61375 | -83.57556 | 34984 ft | 535 kts | 154° |
| 2026-05-05 21:57 | 29.54894 | -83.53323 | 34982 ft | 534 kts | 154° |
| 2026-05-05 21:58 | 29.48406 | -83.49088 | 34980 ft | 533 kts | 154° |
| 2026-05-05 21:58 | 29.41949 | -83.44882 | 34980 ft | 533 kts | 154° |
| 2026-05-05 21:59 | 29.35494 | -83.40684 | 34979 ft | 533 kts | 154° |
| 2026-05-05 21:59 | 29.29029 | -83.36482 | 34977 ft | 531 kts | 154° |
| 2026-05-05 22:00 | 29.22426 | -83.32597 | 34979 ft | 527 kts | 161° |
| 2026-05-05 22:00 | 29.15689 | -83.29183 | 34988 ft | 526 kts | 162° |
| 2026-05-05 22:01 | 29.08972 | -83.25813 | 34990 ft | 527 kts | 162° |
| 2026-05-05 22:01 | 29.02243 | -83.22417 | 34992 ft | 526 kts | 161° |
| 2026-05-05 22:02 | 28.95519 | -83.19019 | 34995 ft | 526 kts | 161° |
| 2026-05-05 22:02 | 28.88661 | -83.15554 | 34992 ft | 524 kts | 161° |
| 2026-05-05 22:03 | 28.81687 | -83.12038 | 34994 ft | 525 kts | 161° |
| 2026-05-05 22:03 | 28.74647 | -83.08498 | 34981 ft | 526 kts | 161° |
| 2026-05-05 22:04 | 28.67542 | -83.04924 | 34979 ft | 525 kts | 161° |
| 2026-05-05 22:04 | 28.60472 | -83.01373 | 34977 ft | 525 kts | 161° |
| 2026-05-05 22:05 | 28.53303 | -82.97783 | 34975 ft | 524 kts | 161° |
| 2026-05-05 22:05 | 28.46307 | -82.94280 | 34972 ft | 524 kts | 161° |
| 2026-05-05 22:06 | 28.39358 | -82.90810 | 34973 ft | 524 kts | 161° |
| 2026-05-05 22:06 | 28.32463 | -82.87367 | 34972 ft | 523 kts | 161° |
| 2026-05-05 22:07 | 28.25514 | -82.83902 | 34972 ft | 523 kts | 161° |
| 2026-05-05 22:07 | 28.18375 | -82.80353 | 34978 ft | 523 kts | 161° |
| 2026-05-05 22:08 | 28.11361 | -82.76862 | 34983 ft | 523 kts | 161° |
| 2026-05-05 22:08 | 28.04368 | -82.73483 | 34985 ft | 519 kts | 164° |
| 2026-05-05 22:09 | 27.97172 | -82.70997 | 34984 ft | 513 kts | 173° |
| 2026-05-05 22:09 | 27.90091 | -82.69515 | 34983 ft | 508 kts | 177° |
| 2026-05-05 22:10 | 27.83080 | -82.68185 | 34981 ft | 509 kts | 176° |
| 2026-05-05 22:10 | 27.76055 | -82.66814 | 34980 ft | 508 kts | 176° |
| 2026-05-05 22:11 | 27.69046 | -82.65438 | 34977 ft | 509 kts | 176° |
| 2026-05-05 22:11 | 27.61994 | -82.64048 | 34978 ft | 509 kts | 176° |
| 2026-05-05 22:12 | 27.54956 | -82.62662 | 34979 ft | 509 kts | 175° |
| 2026-05-05 22:12 | 27.47974 | -82.60833 | 34982 ft | 513 kts | 170° |
| 2026-05-05 22:13 | 27.40980 | -82.58762 | 34981 ft | 513 kts | 170° |
| 2026-05-05 22:13 | 27.34004 | -82.56699 | 34980 ft | 511 kts | 170° |
| 2026-05-05 22:14 | 27.26956 | -82.54630 | 34981 ft | 512 kts | 170° |
| 2026-05-05 22:14 | 27.20050 | -82.52605 | 34977 ft | 511 kts | 170° |
| 2026-05-05 22:15 | 27.13054 | -82.50558 | 34976 ft | 511 kts | 170° |
| 2026-05-05 22:15 | 27.06119 | -82.48531 | 34978 ft | 512 kts | 170° |
| 2026-05-05 22:16 | 26.99215 | -82.46481 | 34976 ft | 512 kts | 167° |
| 2026-05-05 22:16 | 26.92562 | -82.43581 | 34975 ft | 518 kts | 156° |
| 2026-05-05 22:17 | 26.86356 | -82.39359 | 34973 ft | 523 kts | 144° |
| 2026-05-05 22:17 | 26.80741 | -82.34122 | 34966 ft | 523 kts | 140° |
| 2026-05-05 22:17 | 26.77974 | -82.31401 | 34864 ft | 519 kts | 140° |
| 2026-05-05 22:18 | 26.75223 | -82.28710 | 34393 ft | 515 kts | 140° |
| 2026-05-05 22:18 | 26.72438 | -82.26014 | 33663 ft | 514 kts | 140° |
| 2026-05-05 22:18 | 26.69710 | -82.23389 | 32981 ft | 512 kts | 140° |
| 2026-05-05 22:18 | 26.66947 | -82.20742 | 32296 ft | 512 kts | 140° |
| 2026-05-05 22:19 | 26.64155 | -82.18077 | 31554 ft | 512 kts | 140° |
| 2026-05-05 22:19 | 26.61410 | -82.15456 | 30778 ft | 512 kts | 140° |
| 2026-05-05 22:19 | 26.58665 | -82.12831 | 30006 ft | 513 kts | 140° |
| 2026-05-05 22:19 | 26.55957 | -82.10247 | 29265 ft | 513 kts | 140° |
| 2026-05-05 22:20 | 26.53235 | -82.07654 | 28495 ft | 513 kts | 140° |
| 2026-05-05 22:20 | 26.50512 | -82.04989 | 27685 ft | 513 kts | 139° |
| 2026-05-05 22:20 | 26.47820 | -82.02276 | 26855 ft | 514 kts | 138° |
| 2026-05-05 22:20 | 26.45175 | -81.99591 | 26041 ft | 514 kts | 138° |
| 2026-05-05 22:21 | 26.42517 | -81.96896 | 25474 ft | 508 kts | 138° |
| 2026-05-05 22:21 | 26.39925 | -81.94273 | 24965 ft | 502 kts | 139° |
| 2026-05-05 22:21 | 26.37321 | -81.91648 | 24396 ft | 497 kts | 139° |
| 2026-05-05 22:21 | 26.34719 | -81.89030 | 23841 ft | 491 kts | 139° |
| 2026-05-05 22:22 | 26.32184 | -81.86482 | 23296 ft | 486 kts | 139° |
| 2026-05-05 22:22 | 26.29686 | -81.83973 | 23005 ft | 475 kts | 139° |
| 2026-05-05 22:22 | 26.27224 | -81.81503 | 22785 ft | 461 kts | 139° |
| 2026-05-05 22:22 | 26.24925 | -81.79079 | 22488 ft | 446 kts | 133° |
| 2026-05-05 22:23 | 26.23030 | -81.76372 | 22024 ft | 436 kts | 122° |
| 2026-05-05 22:23 | 26.21577 | -81.73425 | 21435 ft | 430 kts | 115° |
| 2026-05-05 22:23 | 26.20287 | -81.70403 | 20910 ft | 428 kts | 113° |
| 2026-05-05 22:23 | 26.19053 | -81.67441 | 20501 ft | 423 kts | 113° |
| 2026-05-05 22:24 | 26.17797 | -81.64461 | 20104 ft | 419 kts | 114° |
| 2026-05-05 22:24 | 26.16555 | -81.61562 | 19699 ft | 415 kts | 114° |
| 2026-05-05 22:24 | 26.15288 | -81.58624 | 19279 ft | 411 kts | 114° |
| 2026-05-05 22:24 | 26.14047 | -81.55764 | 18870 ft | 408 kts | 114° |
| 2026-05-05 22:25 | 26.12809 | -81.52923 | 18468 ft | 404 kts | 114° |
| 2026-05-05 22:25 | 26.11590 | -81.50126 | 18052 ft | 401 kts | 115° |
| 2026-05-05 22:25 | 26.10381 | -81.47355 | 17654 ft | 397 kts | 115° |
| 2026-05-05 22:25 | 26.09168 | -81.44579 | 17229 ft | 394 kts | 115° |
| 2026-05-05 22:26 | 26.07981 | -81.41860 | 16740 ft | 388 kts | 115° |
| 2026-05-05 22:26 | 26.06800 | -81.39163 | 16116 ft | 385 kts | 115° |
| 2026-05-05 22:26 | 26.05644 | -81.36513 | 15481 ft | 382 kts | 115° |
| 2026-05-05 22:26 | 26.04493 | -81.33870 | 14934 ft | 377 kts | 115° |
| 2026-05-05 22:27 | 26.03351 | -81.31246 | 14508 ft | 373 kts | 115° |
| 2026-05-05 22:27 | 26.02281 | -81.28793 | 14113 ft | 370 kts | 115° |
| 2026-05-05 22:27 | 26.01155 | -81.26210 | 13698 ft | 368 kts | 115° |
| 2026-05-05 22:27 | 26.00031 | -81.23636 | 13276 ft | 365 kts | 115° |
| 2026-05-05 22:28 | 25.98935 | -81.21123 | 12862 ft | 363 kts | 115° |
| 2026-05-05 22:28 | 25.97828 | -81.18588 | 12427 ft | 361 kts | 115° |
| 2026-05-05 22:28 | 25.96731 | -81.16077 | 11985 ft | 358 kts | 116° |
| 2026-05-05 22:28 | 25.95655 | -81.13618 | 11586 ft | 355 kts | 115° |
| 2026-05-05 22:29 | 25.94564 | -81.11127 | 11155 ft | 353 kts | 116° |
| 2026-05-05 22:29 | 25.93490 | -81.08674 | 10734 ft | 351 kts | 116° |
| 2026-05-05 22:29 | 25.92430 | -81.06255 | 10370 ft | 346 kts | 116° |
| 2026-05-05 22:29 | 25.91392 | -81.03879 | 10217 ft | 335 kts | 115° |
| 2026-05-05 22:30 | 25.90469 | -81.01540 | 10094 ft | 323 kts | 113° |
| 2026-05-05 22:30 | 25.89609 | -80.99290 | 9955 ft | 312 kts | 113° |
| 2026-05-05 22:30 | 25.88763 | -80.97068 | 9595 ft | 311 kts | 113° |
| 2026-05-05 22:30 | 25.87910 | -80.94836 | 9225 ft | 309 kts | 113° |
| 2026-05-05 22:31 | 25.87073 | -80.92653 | 8903 ft | 305 kts | 113° |
| 2026-05-05 22:31 | 25.86243 | -80.90492 | 8902 ft | 301 kts | 113° |
| 2026-05-05 22:31 | 25.85416 | -80.88337 | 8742 ft | 304 kts | 113° |
| 2026-05-05 22:31 | 25.84560 | -80.86114 | 8366 ft | 303 kts | 113° |
| 2026-05-05 22:32 | 25.83704 | -80.83890 | 8000 ft | 301 kts | 113° |
| 2026-05-05 22:32 | 25.82875 | -80.81737 | 7657 ft | 297 kts | 112° |
| 2026-05-05 22:32 | 25.82058 | -80.79612 | 7320 ft | 294 kts | 112° |
| 2026-05-05 22:32 | 25.81266 | -80.77554 | 7000 ft | 291 kts | 112° |
| 2026-05-05 22:33 | 25.80472 | -80.75493 | 6639 ft | 289 kts | 112° |
| 2026-05-05 22:33 | 25.79676 | -80.73426 | 6274 ft | 288 kts | 112° |
| 2026-05-05 22:33 | 25.78894 | -80.71384 | 5920 ft | 285 kts | 110° |
| 2026-05-05 22:33 | 25.78417 | -80.69226 | 5562 ft | 282 kts | 94° |
| 2026-05-05 22:34 | 25.78403 | -80.66982 | 5209 ft | 278 kts | 86° |
| 2026-05-05 22:34 | 25.78505 | -80.64852 | 4985 ft | 270 kts | 85° |
| 2026-05-05 22:34 | 25.78607 | -80.62798 | 4967 ft | 254 kts | 86° |
| 2026-05-05 22:34 | 25.78706 | -80.60827 | 4956 ft | 240 kts | 85° |
| 2026-05-05 22:35 | 25.78831 | -80.59000 | 4801 ft | 232 kts | 84° |
| 2026-05-05 22:35 | 25.78956 | -80.57226 | 4501 ft | 231 kts | 84° |
| 2026-05-05 22:35 | 25.79058 | -80.55451 | 4213 ft | 229 kts | 85° |
| 2026-05-05 22:35 | 25.79140 | -80.53700 | 4009 ft | 220 kts | 85° |
| 2026-05-05 22:36 | 25.79209 | -80.51978 | 3689 ft | 215 kts | 86° |
| 2026-05-05 22:36 | 25.79272 | -80.50313 | 3386 ft | 209 kts | 86° |
| 2026-05-05 22:36 | 25.79331 | -80.48711 | 3099 ft | 203 kts | 85° |
| 2026-05-05 22:36 | 25.79389 | -80.47160 | 2827 ft | 197 kts | 86° |
| 2026-05-05 22:37 | 25.79448 | -80.45625 | 2567 ft | 190 kts | 85° |
| 2026-05-05 22:37 | 25.79504 | -80.44172 | 2324 ft | 182 kts | 85° |
| 2026-05-05 22:37 | 25.79557 | -80.42797 | 2101 ft | 174 kts | 85° |
| 2026-05-05 22:37 | 25.79608 | -80.41483 | 1889 ft | 165 kts | 84° |
| 2026-05-05 22:38 | 25.79658 | -80.40240 | 1675 ft | 153 kts | 85° |
| 2026-05-05 22:38 | 25.79705 | -80.39069 | 1530 ft | 149 kts | 85° |
| 2026-05-05 22:38 | 25.79749 | -80.37972 | 1325 ft | 139 kts | 85° |
| 2026-05-05 22:38 | 25.79793 | -80.36893 | 1152 ft | 138 kts | 85° |
| 2026-05-05 22:39 | 25.79837 | -80.35812 | 983 ft | 138 kts | 85° |
| 2026-05-05 22:39 | 25.79880 | -80.34764 | 808 ft | 137 kts | 86° |
| 2026-05-05 22:39 | 25.79923 | -80.33705 | 631 ft | 136 kts | 86° |
| 2026-05-05 22:39 | 25.79967 | -80.32645 | 453 ft | 135 kts | 86° |
| 2026-05-05 22:40 | 25.80006 | -80.31609 | 285 ft | 135 kts | 87° |
| 2026-05-05 22:40 | 25.80052 | -80.30569 | 116 ft | 134 kts | 86° |
| 2026-05-05 22:40 | 25.80096 | -80.29547 | 16 ft | 126 kts | 87° |
| 2026-05-05 22:40 | 25.80131 | -80.28716 | 14 ft | 82 kts | 88° |
| 2026-05-05 22:41 | 25.80149 | -80.28271 | 13 ft | 34 kts | 88° |
| 2026-05-05 22:41 | 25.80149 | -80.28072 | 13 ft | 20 kts | 97° |
| 2026-05-05 22:41 | 25.80110 | -80.27960 | 13 ft | 7 kts | 139° |
| 2026-05-05 22:41 | 25.80066 | -80.27969 | 13 ft | 7 kts | 233° |
| 2026-05-05 22:42 | 25.80050 | -80.28029 | 13 ft | 8 kts | 261° |
| 2026-05-05 22:42 | 25.80043 | -80.28101 | 13 ft | 9 kts | 264° |
| 2026-05-05 22:42 | 25.80015 | -80.28142 | 13 ft | 7 kts | 197° |
| 2026-05-05 22:42 | 25.79969 | -80.28120 | 13 ft | 8 kts | 137° |
| 2026-05-05 22:43 | 25.79933 | -80.28121 | 13 ft | 6 kts | 253° |
| 2026-05-05 22:43 | 25.79918 | -80.28162 | 13 ft | 6 kts | 200° |
| 2026-05-05 22:43 | 25.79876 | -80.28163 | 13 ft | 3 kts | 180° |
| 2026-05-05 22:43 | 25.79848 | -80.28164 | 13 ft | 4 kts | 180° |
| 2026-05-05 22:44 | 25.79836 | -80.28164 | 13 ft | 1 kts | 181° |
| 2026-05-05 22:44 | 25.79832 | -80.28164 | 13 ft | 0 kts | 181° |